Ramrod Key, Florida
Current Conditions -  °F | °C
As of 10:53 AM on Sunday 21 Dec 2014 (Local Time) from KNQX Reporting Station
Broken Clouds Broken Clouds  
Wind Chill: 80°   Ceiling: 11000
Heat Index: 83°   Visibility: 10mi
Dew Point: 69°   Wind: 14mph
Humidity: 69%   Direction: 130°SE
Pressure: 30.08"   Gusts: NA
Location:  24.6465°N, 81.5399°W
Report Text: KNQX 211553Z 13012KT 10SM FEW025 BKN110 27/21 A3008 RMK AO2 SLP185 T02670206
Loading
Personal Weather Stations






























Interactive Weather Map New forecast layout! Learn more

10-Day Weather Forecast

Advertisements
Track Severe Weather on mobile